sensor_id;sensor_type;location;lat;lon;timestamp;pressure;altitude;pressure_sealevel;temperature;humidity
6144;BME280;3103;49.492;8.474;2022-08-25T00:00:13;100597.56;;;27.31;37.78
6144;BME280;3103;49.492;8.474;2022-08-25T00:02:40;100605.16;;;27.34;37.94
6144;BME280;3103;49.492;8.474;2022-08-25T00:05:24;100601.47;;;27.30;37.85
6144;BME280;3103;49.492;8.474;2022-08-25T00:07:53;100605.19;;;27.21;38.14
6144;BME280;3103;49.492;8.474;2022-08-25T00:10:20;100601.50;;;27.17;38.26
6144;BME280;3103;49.492;8.474;2022-08-25T00:12:47;100604.03;;;27.10;38.50
6144;BME280;3103;49.492;8.474;2022-08-25T00:15:13;100613.00;;;27.19;38.33
6144;BME280;3103;49.492;8.474;2022-08-25T00:17:40;100603.47;;;27.17;38.48
6144;BME280;3103;49.492;8.474;2022-08-25T00:20:07;100610.34;;;27.11;38.71
6144;BME280;3103;49.492;8.474;2022-08-25T00:22:35;100610.25;;;27.19;38.69
6144;BME280;3103;49.492;8.474;2022-08-25T00:25:02;100612.41;;;27.14;39.05
6144;BME280;3103;49.492;8.474;2022-08-25T00:27:29;100613.56;;;27.13;38.90
6144;BME280;3103;49.492;8.474;2022-08-25T00:29:56;100613.81;;;27.20;39.15
6144;BME280;3103;49.492;8.474;2022-08-25T00:32:23;100615.75;;;27.19;38.81
6144;BME280;3103;49.492;8.474;2022-08-25T00:34:51;100608.75;;;27.10;39.19
6144;BME280;3103;49.492;8.474;2022-08-25T00:37:18;100610.47;;;27.14;39.12
6144;BME280;3103;49.492;8.474;2022-08-25T00:39:45;100606.78;;;27.10;39.29
6144;BME280;3103;49.492;8.474;2022-08-25T00:42:12;100604.47;;;27.00;39.70
6144;BME280;3103;49.492;8.474;2022-08-25T00:44:42;100609.66;;;27.02;39.49
6144;BME280;3103;49.492;8.474;2022-08-25T00:47:09;100607.22;;;27.00;39.64
6144;BME280;3103;49.492;8.474;2022-08-25T00:49:46;100600.59;;;27.01;39.62
6144;BME280;3103;49.492;8.474;2022-08-25T00:52:21;100600.09;;;26.99;39.77
6144;BME280;3103;49.492;8.474;2022-08-25T00:55:08;100606.59;;;27.03;39.63
6144;BME280;3103;49.492;8.474;2022-08-25T00:57:43;100605.16;;;26.97;39.83
6144;BME280;3103;49.492;8.474;2022-08-25T01:00:19;100604.94;;;26.90;39.94
6144;BME280;3103;49.492;8.474;2022-08-25T01:02:46;100604.81;;;26.86;40.08
6144;BME280;3103;49.492;8.474;2022-08-25T01:05:13;100603.44;;;26.80;40.55
6144;BME280;3103;49.492;8.474;2022-08-25T01:07:41;100607.56;;;26.74;40.14
6144;BME280;3103;49.492;8.474;2022-08-25T01:10:11;100601.16;;;26.82;40.28
6144;BME280;3103;49.492;8.474;2022-08-25T01:12:39;100606.78;;;26.86;40.17
6144;BME280;3103;49.492;8.474;2022-08-25T01:15:09;100603.81;;;26.79;40.46
6144;BME280;3103;49.492;8.474;2022-08-25T01:17:50;100609.88;;;26.72;40.53
6144;BME280;3103;49.492;8.474;2022-08-25T01:20:19;100609.06;;;26.72;40.75
6144;BME280;3103;49.492;8.474;2022-08-25T01:22:47;100603.53;;;26.59;41.14
6144;BME280;3103;49.492;8.474;2022-08-25T01:25:45;100614.91;;;26.58;41.11
6144;BME280;3103;49.492;8.474;2022-08-25T01:28:13;100601.50;;;26.69;41.19
6144;BME280;3103;49.492;8.474;2022-08-25T01:30:40;100612.41;;;26.65;41.18
6144;BME280;3103;49.492;8.474;2022-08-25T01:33:09;100610.88;;;26.55;41.47
6144;BME280;3103;49.492;8.474;2022-08-25T01:35:38;100608.59;;;26.57;41.36
6144;BME280;3103;49.492;8.474;2022-08-25T01:38:06;100601.28;;;26.61;41.02
6144;BME280;3103;49.492;8.474;2022-08-25T01:40:34;100600.78;;;26.59;41.38
6144;BME280;3103;49.492;8.474;2022-08-25T01:45:44;100609.84;;;26.60;41.16
6144;BME280;3103;49.492;8.474;2022-08-25T01:48:13;100611.25;;;26.54;41.55
6144;BME280;3103;49.492;8.474;2022-08-25T01:50:41;100602.84;;;26.50;41.74
6144;BME280;3103;49.492;8.474;2022-08-25T01:53:29;100602.50;;;26.40;41.67
6144;BME280;3103;49.492;8.474;2022-08-25T01:56:06;100611.09;;;26.38;41.90
6144;BME280;3103;49.492;8.474;2022-08-25T01:58:38;100609.94;;;26.39;42.02
6144;BME280;3103;49.492;8.474;2022-08-25T02:01:08;100604.00;;;26.49;41.63
6144;BME280;3103;49.492;8.474;2022-08-25T02:03:37;100611.56;;;26.40;41.95
6144;BME280;3103;49.492;8.474;2022-08-25T02:06:13;100614.38;;;26.31;42.29
6144;BME280;3103;49.492;8.474;2022-08-25T02:08:41;100607.81;;;26.24;42.82
6144;BME280;3103;49.492;8.474;2022-08-25T02:11:14;100622.50;;;26.28;43.67
6144;BME280;3103;49.492;8.474;2022-08-25T02:13:41;100608.84;;;26.31;43.29
6144;BME280;3103;49.492;8.474;2022-08-25T02:16:09;100606.22;;;26.23;44.31
6144;BME280;3103;49.492;8.474;2022-08-25T02:18:40;100607.41;;;26.34;44.46
6144;BME280;3103;49.492;8.474;2022-08-25T02:21:07;100601.25;;;26.16;45.88
6144;BME280;3103;49.492;8.474;2022-08-25T02:23:33;100606.91;;;26.20;45.56
6144;BME280;3103;49.492;8.474;2022-08-25T02:26:02;100604.63;;;26.22;45.84
6144;BME280;3103;49.492;8.474;2022-08-25T02:28:29;100601.84;;;26.22;45.51
6144;BME280;3103;49.492;8.474;2022-08-25T02:30:55;100605.97;;;26.16;45.05
6144;BME280;3103;49.492;8.474;2022-08-25T02:33:27;100607.56;;;26.17;45.90
6144;BME280;3103;49.492;8.474;2022-08-25T02:35:57;100597.00;;;26.07;45.39
6144;BME280;3103;49.492;8.474;2022-08-25T02:38:23;100599.81;;;25.98;45.75
6144;BME280;3103;49.492;8.474;2022-08-25T02:40:54;100598.09;;;25.93;45.55
6144;BME280;3103;49.492;8.474;2022-08-25T02:43:22;100597.06;;;25.98;45.74
6144;BME280;3103;49.492;8.474;2022-08-25T02:45:48;100596.72;;;25.99;44.91
6144;BME280;3103;49.492;8.474;2022-08-25T02:48:15;100593.41;;;25.94;44.44
6144;BME280;3103;49.492;8.474;2022-08-25T02:50:50;100595.34;;;25.93;44.24
6144;BME280;3103;49.492;8.474;2022-08-25T02:53:19;100585.25;;;25.97;44.04
6144;BME280;3103;49.492;8.474;2022-08-25T02:55:46;100585.25;;;25.97;44.13
6144;BME280;3103;49.492;8.474;2022-08-25T02:58:13;100590.19;;;25.92;43.88
6144;BME280;3103;49.492;8.474;2022-08-25T03:00:40;100588.34;;;25.96;44.21
6144;BME280;3103;49.492;8.474;2022-08-25T03:03:08;100588.94;;;26.01;44.22
6144;BME280;3103;49.492;8.474;2022-08-25T03:05:35;100581.53;;;25.81;47.05
6144;BME280;3103;49.492;8.474;2022-08-25T03:08:03;100582.22;;;25.78;48.07
6144;BME280;3103;49.492;8.474;2022-08-25T03:10:31;100588.19;;;25.80;48.80
6144;BME280;3103;49.492;8.474;2022-08-25T03:12:58;100580.28;;;25.79;48.37
6144;BME280;3103;49.492;8.474;2022-08-25T03:15:24;100583.69;;;25.75;47.95
6144;BME280;3103;49.492;8.474;2022-08-25T03:17:56;100591.47;;;25.73;47.77
6144;BME280;3103;49.492;8.474;2022-08-25T03:20:25;100586.13;;;25.77;47.64
6144;BME280;3103;49.492;8.474;2022-08-25T03:22:53;100586.78;;;25.74;47.00
6144;BME280;3103;49.492;8.474;2022-08-25T03:25:20;100579.84;;;25.68;46.91
6144;BME280;3103;49.492;8.474;2022-08-25T03:28:06;100588.38;;;25.54;46.96
6144;BME280;3103;49.492;8.474;2022-08-25T03:30:33;100589.97;;;25.55;46.25
6144;BME280;3103;49.492;8.474;2022-08-25T03:33:00;100587.97;;;25.64;45.81
6144;BME280;3103;49.492;8.474;2022-08-25T03:35:27;100593.88;;;25.54;45.72
6144;BME280;3103;49.492;8.474;2022-08-25T03:37:57;100595.41;;;25.43;45.52
6144;BME280;3103;49.492;8.474;2022-08-25T03:40:24;100593.72;;;25.30;45.81
6144;BME280;3103;49.492;8.474;2022-08-25T03:42:52;100593.41;;;25.31;45.69
6144;BME280;3103;49.492;8.474;2022-08-25T03:45:23;100592.13;;;25.29;46.14
6144;BME280;3103;49.492;8.474;2022-08-25T03:47:51;100587.63;;;25.24;46.20
6144;BME280;3103;49.492;8.474;2022-08-25T03:50:20;100586.50;;;25.25;46.15
6144;BME280;3103;49.492;8.474;2022-08-25T03:52:53;100574.34;;;25.26;45.85
6144;BME280;3103;49.492;8.474;2022-08-25T03:55:21;100572.53;;;25.30;45.85
6144;BME280;3103;49.492;8.474;2022-08-25T03:57:50;100564.38;;;25.22;45.88
6144;BME280;3103;49.492;8.474;2022-08-25T04:00:18;100565.81;;;25.19;45.69
6144;BME280;3103;49.492;8.474;2022-08-25T04:02:45;100567.72;;;25.06;45.89
6144;BME280;3103;49.492;8.474;2022-08-25T04:05:12;100562.69;;;25.00;46.14
6144;BME280;3103;49.492;8.474;2022-08-25T04:07:41;100565.44;;;25.00;46.33
6144;BME280;3103;49.492;8.474;2022-08-25T04:10:09;100570.00;;;24.96;46.35
6144;BME280;3103;49.492;8.474;2022-08-25T04:12:36;100571.91;;;25.04;46.14
6144;BME280;3103;49.492;8.474;2022-08-25T04:15:05;100574.47;;;25.09;46.13
6144;BME280;3103;49.492;8.474;2022-08-25T04:17:36;100580.56;;;25.14;46.14
6144;BME280;3103;49.492;8.474;2022-08-25T04:20:05;100575.22;;;25.18;46.08
6144;BME280;3103;49.492;8.474;2022-08-25T04:22:32;100577.03;;;25.14;46.22
6144;BME280;3103;49.492;8.474;2022-08-25T04:25:04;100578.28;;;25.16;45.96
6144;BME280;3103;49.492;8.474;2022-08-25T04:27:31;100576.22;;;25.13;46.10
6144;BME280;3103;49.492;8.474;2022-08-25T04:29:58;100591.16;;;25.04;46.29
6144;BME280;3103;49.492;8.474;2022-08-25T04:32:25;100588.91;;;25.06;45.85
6144;BME280;3103;49.492;8.474;2022-08-25T04:34:52;100596.03;;;24.90;46.35
6144;BME280;3103;49.492;8.474;2022-08-25T04:37:18;100587.06;;;24.80;46.37
6144;BME280;3103;49.492;8.474;2022-08-25T04:39:45;100598.56;;;24.74;47.06
6144;BME280;3103;49.492;8.474;2022-08-25T04:42:12;100596.63;;;24.74;46.87
6144;BME280;3103;49.492;8.474;2022-08-25T04:44:39;100591.88;;;24.83;46.91
6144;BME280;3103;49.492;8.474;2022-08-25T04:47:06;100592.56;;;24.80;47.02
6144;BME280;3103;49.492;8.474;2022-08-25T04:49:34;100588.47;;;24.86;46.90
6144;BME280;3103;49.492;8.474;2022-08-25T04:52:01;100585.06;;;24.90;46.67
6144;BME280;3103;49.492;8.474;2022-08-25T04:54:31;100577.31;;;24.92;46.30
6144;BME280;3103;49.492;8.474;2022-08-25T04:57:03;100577.34;;;24.83;46.77
6144;BME280;3103;49.492;8.474;2022-08-25T04:59:31;100583.31;;;24.85;46.33
6144;BME280;3103;49.492;8.474;2022-08-25T05:01:59;100575.09;;;24.76;46.33
6144;BME280;3103;49.492;8.474;2022-08-25T05:04:29;100573.50;;;24.75;45.92
6144;BME280;3103;49.492;8.474;2022-08-25T05:06:57;100577.22;;;24.79;45.87
6144;BME280;3103;49.492;8.474;2022-08-25T05:09:24;100570.56;;;24.80;45.81
6144;BME280;3103;49.492;8.474;2022-08-25T05:11:52;100579.78;;;24.76;45.98
6144;BME280;3103;49.492;8.474;2022-08-25T05:14:21;100583.69;;;24.75;45.74
6144;BME280;3103;49.492;8.474;2022-08-25T05:16:53;100579.56;;;24.60;46.40
6144;BME280;3103;49.492;8.474;2022-08-25T05:19:20;100581.41;;;24.77;46.17
6144;BME280;3103;49.492;8.474;2022-08-25T05:21:49;100579.50;;;24.77;46.37
6144;BME280;3103;49.492;8.474;2022-08-25T05:24:17;100575.28;;;24.80;46.22
6144;BME280;3103;49.492;8.474;2022-08-25T05:26:44;100572.34;;;24.76;46.34
6144;BME280;3103;49.492;8.474;2022-08-25T05:29:11;100562.50;;;24.75;46.63
6144;BME280;3103;49.492;8.474;2022-08-25T05:31:38;100562.50;;;24.75;46.41
6144;BME280;3103;49.492;8.474;2022-08-25T05:34:11;100559.28;;;24.73;46.54
6144;BME280;3103;49.492;8.474;2022-08-25T05:36:38;100563.03;;;25.07;45.94
6144;BME280;3103;49.492;8.474;2022-08-25T05:39:09;100565.59;;;25.03;46.02
6144;BME280;3103;49.492;8.474;2022-08-25T05:41:36;100563.81;;;25.07;46.30
6144;BME280;3103;49.492;8.474;2022-08-25T05:44:03;100569.16;;;25.04;46.19
6144;BME280;3103;49.492;8.474;2022-08-25T05:46:30;100564.97;;;25.06;46.44
6144;BME280;3103;49.492;8.474;2022-08-25T05:48:57;100568.66;;;25.10;46.34
6144;BME280;3103;49.492;8.474;2022-08-25T05:51:24;100564.81;;;25.03;46.67
6144;BME280;3103;49.492;8.474;2022-08-25T05:53:52;100562.91;;;24.95;46.86
6144;BME280;3103;49.492;8.474;2022-08-25T05:56:19;100561.47;;;24.88;47.09
6144;BME280;3103;49.492;8.474;2022-08-25T05:58:46;100561.25;;;25.02;46.95
6144;BME280;3103;49.492;8.474;2022-08-25T06:01:23;100564.03;;;24.94;47.32
6144;BME280;3103;49.492;8.474;2022-08-25T06:04:11;100561.88;;;24.99;47.71
6144;BME280;3103;49.492;8.474;2022-08-25T06:06:38;100557.66;;;25.10;47.25
6144;BME280;3103;49.492;8.474;2022-08-25T06:09:06;100555.38;;;25.33;46.62
6144;BME280;3103;49.492;8.474;2022-08-25T06:11:39;100563.09;;;25.40;46.53
6144;BME280;3103;49.492;8.474;2022-08-25T06:14:07;100559.66;;;25.43;46.63
6144;BME280;3103;49.492;8.474;2022-08-25T06:16:34;100564.63;;;25.50;46.40
6144;BME280;3103;49.492;8.474;2022-08-25T06:19:01;100567.56;;;25.44;46.55
6144;BME280;3103;49.492;8.474;2022-08-25T06:21:27;100559.13;;;25.50;46.73
6144;BME280;3103;49.492;8.474;2022-08-25T06:23:55;100566.72;;;25.53;46.71
6144;BME280;3103;49.492;8.474;2022-08-25T06:26:22;100559.66;;;25.64;46.42
6144;BME280;3103;49.492;8.474;2022-08-25T06:28:50;100567.03;;;25.72;46.20
6144;BME280;3103;49.492;8.474;2022-08-25T06:31:17;100568.94;;;25.80;46.16
6144;BME280;3103;49.492;8.474;2022-08-25T06:33:45;100563.94;;;25.94;45.80
6144;BME280;3103;49.492;8.474;2022-08-25T06:36:12;100556.59;;;25.98;45.83
6144;BME280;3103;49.492;8.474;2022-08-25T06:38:42;100557.78;;;26.10;45.33
6144;BME280;3103;49.492;8.474;2022-08-25T06:41:09;100557.50;;;26.36;44.82
6144;BME280;3103;49.492;8.474;2022-08-25T06:43:37;100562.88;;;26.44;44.63
6144;BME280;3103;49.492;8.474;2022-08-25T06:46:12;100562.66;;;26.37;44.62
6144;BME280;3103;49.492;8.474;2022-08-25T06:48:40;100561.25;;;26.31;44.82
6144;BME280;3103;49.492;8.474;2022-08-25T06:51:09;100566.75;;;26.19;45.26
6144;BME280;3103;49.492;8.474;2022-08-25T06:53:40;100554.88;;;26.51;44.50
6144;BME280;3103;49.492;8.474;2022-08-25T06:56:08;100556.50;;;26.65;44.08
6144;BME280;3103;49.492;8.474;2022-08-25T06:58:35;100555.31;;;26.41;44.66
6144;BME280;3103;49.492;8.474;2022-08-25T07:01:09;100558.31;;;26.85;43.67
6144;BME280;3103;49.492;8.474;2022-08-25T07:03:48;100558.91;;;26.78;43.70
6144;BME280;3103;49.492;8.474;2022-08-25T07:06:18;100554.53;;;26.65;44.23
6144;BME280;3103;49.492;8.474;2022-08-25T07:08:46;100553.84;;;27.05;43.25
6144;BME280;3103;49.492;8.474;2022-08-25T07:11:14;100554.53;;;27.42;42.46
6144;BME280;3103;49.492;8.474;2022-08-25T07:13:43;100546.97;;;27.79;41.54
6144;BME280;3103;49.492;8.474;2022-08-25T07:16:10;100545.28;;;27.90;41.28
6144;BME280;3103;49.492;8.474;2022-08-25T07:18:37;100536.31;;;27.65;41.72
6144;BME280;3103;49.492;8.474;2022-08-25T07:21:05;100533.69;;;27.85;41.60
6144;BME280;3103;49.492;8.474;2022-08-25T07:23:35;100537.78;;;27.75;41.96
6144;BME280;3103;49.492;8.474;2022-08-25T07:26:12;100539.09;;;27.65;42.73
6144;BME280;3103;49.492;8.474;2022-08-25T07:29:01;100534.19;;;27.46;43.50
6144;BME280;3103;49.492;8.474;2022-08-25T07:31:28;100535.06;;;27.63;43.22
6144;BME280;3103;49.492;8.474;2022-08-25T07:33:58;100535.91;;;27.79;43.69
6144;BME280;3103;49.492;8.474;2022-08-25T07:36:43;100532.81;;;27.80;43.52
6144;BME280;3103;49.492;8.474;2022-08-25T07:39:12;100526.13;;;27.82;42.90
6144;BME280;3103;49.492;8.474;2022-08-25T07:41:40;100539.38;;;27.76;43.20
6144;BME280;3103;49.492;8.474;2022-08-25T07:44:09;100539.22;;;28.00;42.19
6144;BME280;3103;49.492;8.474;2022-08-25T07:46:36;100541.19;;;28.00;42.24
6144;BME280;3103;49.492;8.474;2022-08-25T07:49:05;100539.88;;;27.94;42.62
6144;BME280;3103;49.492;8.474;2022-08-25T07:51:42;100538.09;;;28.01;42.65
6144;BME280;3103;49.492;8.474;2022-08-25T07:54:29;100535.00;;;28.03;42.46
6144;BME280;3103;49.492;8.474;2022-08-25T07:57:04;100535.88;;;28.07;42.63
6144;BME280;3103;49.492;8.474;2022-08-25T07:59:31;100533.47;;;28.05;42.61
6144;BME280;3103;49.492;8.474;2022-08-25T08:02:14;100536.31;;;28.09;42.09
6144;BME280;3103;49.492;8.474;2022-08-25T08:04:51;100543.53;;;28.14;42.46
6144;BME280;3103;49.492;8.474;2022-08-25T08:07:22;100543.59;;;28.29;42.00
6144;BME280;3103;49.492;8.474;2022-08-25T08:10:12;100540.47;;;28.31;41.79
6144;BME280;3103;49.492;8.474;2022-08-25T08:12:59;100541.00;;;28.36;41.83
6144;BME280;3103;49.492;8.474;2022-08-25T08:15:27;100547.59;;;28.48;41.33
6144;BME280;3103;49.492;8.474;2022-08-25T08:17:56;100544.81;;;28.63;41.24
6144;BME280;3103;49.492;8.474;2022-08-25T08:20:25;100549.59;;;28.82;40.67
6144;BME280;3103;49.492;8.474;2022-08-25T08:22:52;100548.00;;;28.65;40.67
6144;BME280;3103;49.492;8.474;2022-08-25T08:25:19;100536.53;;;28.63;40.86
6144;BME280;3103;49.492;8.474;2022-08-25T08:27:54;100546.22;;;28.57;40.97
6144;BME280;3103;49.492;8.474;2022-08-25T08:30:23;100542.56;;;28.69;40.62
6144;BME280;3103;49.492;8.474;2022-08-25T08:32:53;100550.69;;;28.78;40.51
6144;BME280;3103;49.492;8.474;2022-08-25T08:35:39;100550.66;;;28.93;40.07
6144;BME280;3103;49.492;8.474;2022-08-25T08:38:07;100546.19;;;29.05;39.32
6144;BME280;3103;49.492;8.474;2022-08-25T08:40:48;100549.22;;;29.00;39.25
6144;BME280;3103;49.492;8.474;2022-08-25T08:43:41;100547.53;;;28.95;39.04
6144;BME280;3103;49.492;8.474;2022-08-25T08:46:09;100545.81;;;29.06;38.64
6144;BME280;3103;49.492;8.474;2022-08-25T08:49:05;100545.03;;;29.06;39.36
6144;BME280;3103;49.492;8.474;2022-08-25T08:51:46;100539.19;;;29.11;39.05
6144;BME280;3103;49.492;8.474;2022-08-25T08:54:22;100535.44;;;29.19;39.14
6144;BME280;3103;49.492;8.474;2022-08-25T08:57:01;100524.06;;;29.24;38.77
6144;BME280;3103;49.492;8.474;2022-08-25T08:59:38;100527.38;;;29.30;38.80
6144;BME280;3103;49.492;8.474;2022-08-25T09:02:15;100529.03;;;29.15;38.91
6144;BME280;3103;49.492;8.474;2022-08-25T09:05:10;100525.50;;;28.98;39.21
6144;BME280;3103;49.492;8.474;2022-08-25T09:07:46;100526.78;;;29.20;38.89
6144;BME280;3103;49.492;8.474;2022-08-25T09:10:22;100526.50;;;29.45;38.30
6144;BME280;3103;49.492;8.474;2022-08-25T09:13:13;100530.63;;;29.35;38.77
6144;BME280;3103;49.492;8.474;2022-08-25T09:15:53;100521.75;;;29.26;38.57
6144;BME280;3103;49.492;8.474;2022-08-25T09:19:36;100517.00;;;29.07;38.40
6144;BME280;3103;49.492;8.474;2022-08-25T09:25:27;100521.66;;;29.42;37.61
6144;BME280;3103;49.492;8.474;2022-08-25T09:28:34;100513.59;;;29.52;37.31
6144;BME280;3103;49.492;8.474;2022-08-25T09:34:00;100498.88;;;28.90;38.12
6144;BME280;3103;49.492;8.474;2022-08-25T09:36:29;100501.34;;;28.95;38.51
6144;BME280;3103;49.492;8.474;2022-08-25T09:39:04;100494.88;;;29.07;37.45
6144;BME280;3103;49.492;8.474;2022-08-25T09:41:49;100496.41;;;29.43;37.16
6144;BME280;3103;49.492;8.474;2022-08-25T09:44:24;100490.00;;;29.39;36.89
6144;BME280;3103;49.492;8.474;2022-08-25T09:49:37;100488.84;;;29.02;37.98
6144;BME280;3103;49.492;8.474;2022-08-25T09:52:22;100479.16;;;28.76;38.73
6144;BME280;3103;49.492;8.474;2022-08-25T09:54:52;100477.84;;;28.54;38.67
6144;BME280;3103;49.492;8.474;2022-08-25T10:00:28;100471.53;;;28.54;38.85
6144;BME280;3103;49.492;8.474;2022-08-25T10:03:10;100463.44;;;28.80;38.36
6144;BME280;3103;49.492;8.474;2022-08-25T10:05:49;100455.59;;;28.82;38.24
6144;BME280;3103;49.492;8.474;2022-08-25T10:08:30;100462.03;;;29.25;37.13
6144;BME280;3103;49.492;8.474;2022-08-25T10:11:00;100459.22;;;29.21;38.07
6144;BME280;3103;49.492;8.474;2022-08-25T10:13:51;100446.94;;;29.42;37.93
6144;BME280;3103;49.492;8.474;2022-08-25T10:16:28;100450.38;;;29.35;37.34
6144;BME280;3103;49.492;8.474;2022-08-25T10:22:02;100437.84;;;29.61;37.19
6144;BME280;3103;49.492;8.474;2022-08-25T10:24:30;100439.03;;;29.60;37.41
6144;BME280;3103;49.492;8.474;2022-08-25T10:27:07;100441.06;;;29.63;37.51
6144;BME280;3103;49.492;8.474;2022-08-25T10:38:47;100432.16;;;29.53;36.50
6144;BME280;3103;49.492;8.474;2022-08-25T10:44:18;100420.13;;;29.65;36.24
6144;BME280;3103;49.492;8.474;2022-08-25T10:55:46;100414.03;;;29.37;36.68
6144;BME280;3103;49.492;8.474;2022-08-25T11:01:30;100402.47;;;29.50;36.22
6144;BME280;3103;49.492;8.474;2022-08-25T11:04:19;100401.69;;;29.73;36.01
6144;BME280;3103;49.492;8.474;2022-08-25T11:07:11;100396.88;;;29.93;35.87
6144;BME280;3103;49.492;8.474;2022-08-25T11:09:47;100393.59;;;30.10;35.51
6144;BME280;3103;49.492;8.474;2022-08-25T11:12:35;100401.25;;;30.17;35.66
6144;BME280;3103;49.492;8.474;2022-08-25T11:15:12;100399.81;;;30.03;35.17
6144;BME280;3103;49.492;8.474;2022-08-25T11:17:51;100391.31;;;29.93;34.96
6144;BME280;3103;49.492;8.474;2022-08-25T11:20:26;100388.56;;;29.70;35.74
6144;BME280;3103;49.492;8.474;2022-08-25T11:23:06;100378.91;;;29.83;35.09
6144;BME280;3103;49.492;8.474;2022-08-25T11:25:41;100378.66;;;29.92;35.02
6144;BME280;3103;49.492;8.474;2022-08-25T11:28:17;100379.25;;;30.04;34.73
6144;BME280;3103;49.492;8.474;2022-08-25T11:30:49;100374.75;;;29.96;34.61
6144;BME280;3103;49.492;8.474;2022-08-25T11:33:17;100377.97;;;29.98;35.61
6144;BME280;3103;49.492;8.474;2022-08-25T11:35:52;100377.53;;;29.96;35.82
6144;BME280;3103;49.492;8.474;2022-08-25T11:46:51;100374.50;;;30.28;35.08
6144;BME280;3103;49.492;8.474;2022-08-25T11:55:27;100356.69;;;30.29;34.81
6144;BME280;3103;49.492;8.474;2022-08-25T11:58:20;100360.25;;;30.29;34.84
6144;BME280;3103;49.492;8.474;2022-08-25T12:00:51;100357.91;;;30.31;35.27
6144;BME280;3103;49.492;8.474;2022-08-25T12:08:53;100341.09;;;30.17;34.55
6144;BME280;3103;49.492;8.474;2022-08-25T12:11:49;100347.00;;;29.93;35.65
6144;BME280;3103;49.492;8.474;2022-08-25T12:27:54;100332.28;;;30.11;35.20
6144;BME280;3103;49.492;8.474;2022-08-25T12:30:32;100328.72;;;30.11;35.47
6144;BME280;3103;49.492;8.474;2022-08-25T12:33:17;100327.28;;;30.21;35.22
6144;BME280;3103;49.492;8.474;2022-08-25T12:35:58;100325.44;;;30.32;34.52
6144;BME280;3103;49.492;8.474;2022-08-25T12:38:50;100326.44;;;30.17;34.85
6144;BME280;3103;49.492;8.474;2022-08-25T12:41:23;100324.19;;;29.99;35.41
6144;BME280;3103;49.492;8.474;2022-08-25T12:43:53;100324.69;;;30.35;34.19
6144;BME280;3103;49.492;8.474;2022-08-25T12:46:37;100311.88;;;30.23;34.19
6144;BME280;3103;49.492;8.474;2022-08-25T12:52:00;100319.25;;;30.42;33.61
6144;BME280;3103;49.492;8.474;2022-08-25T12:54:54;100320.56;;;30.22;34.06
6144;BME280;3103;49.492;8.474;2022-08-25T12:57:44;100314.72;;;30.27;33.78
6144;BME280;3103;49.492;8.474;2022-08-25T13:00:16;100313.66;;;30.38;33.75
6144;BME280;3103;49.492;8.474;2022-08-25T13:05:54;100298.38;;;30.52;33.94
6144;BME280;3103;49.492;8.474;2022-08-25T13:11:20;100300.28;;;30.44;34.04
6144;BME280;3103;49.492;8.474;2022-08-25T13:14:01;100298.78;;;30.54;33.53
6144;BME280;3103;49.492;8.474;2022-08-25T13:16:31;100288.16;;;30.56;33.50
6144;BME280;3103;49.492;8.474;2022-08-25T13:19:04;100288.81;;;30.46;33.79
6144;BME280;3103;49.492;8.474;2022-08-25T13:21:38;100283.41;;;30.56;33.63
6144;BME280;3103;49.492;8.474;2022-08-25T13:24:29;100283.16;;;30.68;33.02
6144;BME280;3103;49.492;8.474;2022-08-25T13:27:08;100283.50;;;30.63;33.04
6144;BME280;3103;49.492;8.474;2022-08-25T13:29:49;100274.22;;;30.52;32.90
6144;BME280;3103;49.492;8.474;2022-08-25T13:32:26;100278.59;;;30.53;32.61
6144;BME280;3103;49.492;8.474;2022-08-25T13:35:19;100266.97;;;30.70;31.78
6144;BME280;3103;49.492;8.474;2022-08-25T13:37:48;100271.53;;;30.93;31.58
6144;BME280;3103;49.492;8.474;2022-08-25T13:40:28;100269.88;;;30.85;31.39
6144;BME280;3103;49.492;8.474;2022-08-25T13:42:59;100261.69;;;30.62;32.69
6144;BME280;3103;49.492;8.474;2022-08-25T13:45:30;100260.69;;;30.43;32.61
6144;BME280;3103;49.492;8.474;2022-08-25T13:48:08;100257.50;;;30.41;32.25
6144;BME280;3103;49.492;8.474;2022-08-25T13:50:49;100255.13;;;30.77;31.95
6144;BME280;3103;49.492;8.474;2022-08-25T13:53:24;100257.75;;;31.00;31.62
6144;BME280;3103;49.492;8.474;2022-08-25T13:55:59;100246.13;;;31.28;31.17
6144;BME280;3103;49.492;8.474;2022-08-25T13:58:32;100252.22;;;31.00;31.69
6144;BME280;3103;49.492;8.474;2022-08-25T14:01:19;100249.16;;;31.12;31.07
6144;BME280;3103;49.492;8.474;2022-08-25T14:04:31;100240.28;;;31.40;30.21
6144;BME280;3103;49.492;8.474;2022-08-25T14:10:00;100234.25;;;30.87;31.66
6144;BME280;3103;49.492;8.474;2022-08-25T14:12:27;100236.22;;;30.86;31.30
6144;BME280;3103;49.492;8.474;2022-08-25T14:17:25;100240.75;;;31.49;29.80
6144;BME280;3103;49.492;8.474;2022-08-25T14:20:26;100237.66;;;31.65;30.15
6144;BME280;3103;49.492;8.474;2022-08-25T14:22:58;100225.25;;;32.07;29.24
6144;BME280;3103;49.492;8.474;2022-08-25T14:25:28;100221.88;;;32.53;28.88
6144;BME280;3103;49.492;8.474;2022-08-25T14:27:58;100225.34;;;32.25;29.18
6144;BME280;3103;49.492;8.474;2022-08-25T14:30:41;100216.84;;;31.93;29.56
6144;BME280;3103;49.492;8.474;2022-08-25T14:33:14;100229.72;;;31.60;30.09
6144;BME280;3103;49.492;8.474;2022-08-25T14:35:43;100230.31;;;31.87;29.73
6144;BME280;3103;49.492;8.474;2022-08-25T14:38:13;100219.50;;;32.65;28.82
6144;BME280;3103;49.492;8.474;2022-08-25T14:40:40;100226.53;;;32.24;29.18
6144;BME280;3103;49.492;8.474;2022-08-25T14:43:07;100216.69;;;32.40;28.76
6144;BME280;3103;49.492;8.474;2022-08-25T14:45:37;100218.34;;;32.77;28.05
6144;BME280;3103;49.492;8.474;2022-08-25T14:48:07;100213.63;;;32.85;27.85
6144;BME280;3103;49.492;8.474;2022-08-25T14:50:37;100216.25;;;32.28;28.97
6144;BME280;3103;49.492;8.474;2022-08-25T14:53:09;100210.13;;;31.97;29.30
6144;BME280;3103;49.492;8.474;2022-08-25T14:55:37;100206.56;;;31.97;29.17
6144;BME280;3103;49.492;8.474;2022-08-25T14:58:05;100204.91;;;31.81;29.73
6144;BME280;3103;49.492;8.474;2022-08-25T15:00:35;100202.09;;;32.93;28.80
6144;BME280;3103;49.492;8.474;2022-08-25T15:03:03;100198.13;;;32.94;28.29
6144;BME280;3103;49.492;8.474;2022-08-25T15:05:30;100194.88;;;32.64;28.45
6144;BME280;3103;49.492;8.474;2022-08-25T15:07:57;100198.78;;;32.34;28.73